ADDS METAR Data INFO
IDs: Format: Raw Decoded Include TAF

Data at: 0212 UTC 17 Aug 2018

PAHL 170156Z AUTO 23010G14KT 10SM FEW038 15/06 A2982 RMK AO2 SLP110 T01500061
PAHL 170056Z AUTO 22010KT 10SM BKN038 15/07 A2983 RMK AO2 SLP111 T01500067
PAHL 162356Z AUTO 22008KT 10SM CLR 14/07 A2984 RMK AO2 SLP115 T01440072 10144 20094 57004
PAHL 162256Z AUTO 22008KT 10SM CLR 14/07 A2984 RMK AO2 SLP117 T01390067
PAHL 162156Z AUTO 21010KT 10SM CLR 13/07 A2985 RMK AO2 SLP118 T01330067
PAHL 162056Z AUTO 22010KT 10SM CLR 13/06 A2985 RMK AO2 SLP119 T01280061 56005
PAHL 161956Z AUTO 21009KT 10SM CLR 13/06 A2985 RMK AO2 SLP120 T01280061
PAHL 161856Z AUTO 21008KT 10SM CLR 11/06 A2986 RMK AO2 SLP123 T01110061
PAHL 161756Z AUTO 23005KT 10SM CLR 09/06 A2987 RMK AO2 SLP125 T00940061 10094 20078 58002
PAHL 161656Z AUTO 24004KT 10SM BKN075 OVC090 08/06 A2987 RMK AO2 SLP126 T00830056
PAHL 161556Z AUTO 23005KT 10SM BKN085 08/06 A2987 RMK AO2 SLP127 T00830056
PAHL 161456Z AUTO 22007KT 10SM BKN070 08/06 A2987 RMK AO2 SLP127 T00830056 58006
PAHL 161356Z AUTO 23005KT 10SM OVC060 08/06 A2988 RMK AO2 SLP128 T00780061
PAHL 161256Z AUTO 24004KT 10SM BKN065 08/06 A2989 RMK AO2 SLP131 T00780061
PAHL 161156Z AUTO 23005KT 10SM OVC065 08/06 A2989 RMK AO2 SLP132 60000 T00780061 10089 20078 58003
PAHL 161056Z AUTO 24003KT 10SM OVC060 08/06 A2990 RMK AO2 SLP134 T00780061
PAHL 160956Z AUTO 26004KT 10SM SCT060 BKN070 OVC090 08/06 A2990 RMK AO2 SLP135 T00830061
PAHL 160856Z AUTO 24005KT 10SM OVC070 08/07 A2990 RMK AO2 RAE30 SLP135 P0000 60000 T00830067 401560033 51001
PAHL 160756Z AUTO 25004KT 10SM -RA OVC060 08/07 A2990 RMK AO2 SLP136 P0000 T00780067
PAHL 160656Z AUTO 28005KT 10SM -RA BKN060 OVC090 09/06 A2990 RMK AO2 RAE20B49 SLP135 P0000 T00890056
PAHL 160556Z AUTO 30004KT 10SM -RA BKN050 OVC060 09/06 A2990 RMK AO2 SLP134 P0000 60000 T00890056 10156 20089 51006
PAHL 160456Z AUTO 33007KT 10SM -RA BKN050 OVC100 10/04 A2990 RMK AO2 RAB41 SLP134 P0000 T01000044
PAHL 160356Z AUTO 33006KT 10SM CLR 12/03 A2989 RMK AO2 SLP132 T01170033
PAHL 160256Z AUTO 31006KT 10SM CLR 13/03 A2988 RMK AO2 SLP128 T01280028 53001
PAHL 160156Z AUTO 30007G14KT 10SM CLR 14/01 A2987 RMK AO2 SLP126 T01390011
PAHL 160056Z AUTO 31008G15KT 10SM CLR 15/02 A2987 RMK AO2 SLP126 T01500017
PAHL 152356Z AUTO VRB04KT 10SM BKN050 14/04 A2988 RMK AO2 SLP128 T01440039 10150 20083 58003
PAHL 152256Z AUTO VRB06KT 10SM SCT050 14/03 A2988 RMK AO2 SLP129 T01440033
PAHL 152156Z AUTO 29008KT 10SM CLR 14/03 A2988 RMK AO2 SLP131 T01440033
PAHL 152056Z AUTO 32007KT 10SM CLR 13/02 A2989 RMK AO2 SLP131 T01330022 50000
PAHL 151956Z AUTO 28006KT 10SM CLR 13/03 A2989 RMK AO2 SLP132 T01280033
PAHL 151856Z AUTO 27005KT 10SM CLR 11/04 A2989 RMK AO2 SLP132 T01060039
PAHL 151756Z AUTO VRB03KT 10SM CLR 08/03 A2988 RMK AO2 SLP131 T00830028 10083 20033 51006
PAHL 151656Z AUTO 23003KT 10SM CLR 07/04 A2988 RMK AO2 SLP130 T00670039
PAHL 151556Z AUTO 29003KT 10SM CLR 05/03 A2987 RMK AO2 SLP126 T00500033
PAHL 151456Z AUTO 00000KT 10SM CLR 04/03 A2987 RMK AO2 SLP124 T00390028 51005